Terminal Aerodrome Forecast
Issued by NWS Blacksburg, VA

Current Version | Previous Version | Graphics & Text | Print | Product List | Glossary On
Versions: 1 2 3 4 5 6 7 8 9 10 11 12 13 14 15 16 17 18 19 20 21 22 23 24 25 26 27 28 29 30 31 32 33 34 35 36 37 38 39 40 41 42 43 44
000
FTUS41 KRNK 101740
TAFBLF
TAF
KBLF 101740Z 1018/1118 26010G18KT P6SM FEW025 SCT120
     FM102200 24010KT P6SM SCT020 SCT120
     FM110300 27015G25KT P6SM SCT007 SCT015
      TEMPO 1108/1112 BKN007 BKN015
     FM111400 26010G18KT P6SM SCT025=

USA.gov is the U.S. government's official web portal to all federal, state and local government web resources and services.